createdAt,value
2018-12-21T00:00:57.576Z,6.13
2018-12-21T00:01:57.678Z,6.13
2018-12-21T00:02:57.647Z,6.13
2018-12-21T00:03:57.614Z,6.13
2018-12-21T00:04:57.741Z,6.12
2018-12-21T00:05:57.669Z,6.18
2018-12-21T00:06:57.724Z,6.16
2018-12-21T00:07:58.905Z,6.16
2018-12-21T00:08:57.810Z,6.16
2018-12-21T00:09:58.084Z,6.18
2018-12-21T00:10:57.602Z,6.22
2018-12-21T00:11:57.682Z,6.18
2018-12-21T00:12:57.516Z,6.22
2018-12-21T00:13:57.567Z,6.23
2018-12-21T00:14:57.600Z,6.22
2018-12-21T00:15:57.629Z,6.22
2018-12-21T00:16:57.653Z,6.25
2018-12-21T00:17:57.527Z,6.26
2018-12-21T00:18:57.634Z,6.28
2018-12-21T00:19:57.562Z,6.28
2018-12-21T00:20:57.495Z,6.33
2018-12-21T00:21:57.529Z,6.33
2018-12-21T00:22:57.560Z,6.33
2018-12-21T00:23:57.711Z,6.36
2018-12-21T00:24:57.679Z,6.35
2018-12-21T00:25:57.483Z,6.36
2018-12-21T00:26:57.488Z,6.41
2018-12-21T00:27:57.683Z,6.39
2018-12-21T00:28:57.538Z,6.37
2018-12-21T00:29:57.646Z,6.39
2018-12-21T00:30:57.618Z,6.41
2018-12-21T00:31:57.543Z,6.4
2018-12-21T00:32:57.708Z,6.46
2018-12-21T00:33:57.502Z,6.43
2018-12-21T00:34:57.491Z,6.46
2018-12-21T00:35:57.532Z,6.44
2018-12-21T00:36:57.508Z,6.44
2018-12-21T00:37:57.567Z,6.48
2018-12-21T00:38:57.523Z,6.47
2018-12-21T00:39:57.621Z,6.48
2018-12-21T00:40:57.702Z,6.51
2018-12-21T00:41:57.499Z,6.53
2018-12-21T00:42:57.484Z,6.5
2018-12-21T00:43:57.586Z,6.5
2018-12-21T00:44:57.654Z,6.54
2018-12-21T00:45:57.655Z,6.53
2018-12-21T00:46:57.712Z,6.51
2018-12-21T00:47:57.759Z,6.57
2018-12-21T00:48:57.635Z,6.56
2018-12-21T00:49:57.634Z,6.57
2018-12-21T00:50:57.641Z,6.58
2018-12-21T00:51:57.618Z,6.63
2018-12-21T00:52:57.477Z,6.63
2018-12-21T00:53:57.486Z,6.65
2018-12-21T00:54:57.648Z,6.64
2018-12-21T00:55:57.531Z,6.64
2018-12-21T00:56:57.460Z,6.61
2018-12-21T00:57:57.589Z,6.63
2018-12-21T00:58:57.489Z,6.67
2018-12-21T00:59:57.630Z,6.67
2018-12-21T01:00:57.499Z,6.64
2018-12-21T01:01:57.539Z,6.67
2018-12-21T01:02:57.474Z,6.67
2018-12-21T01:03:57.456Z,6.65
2018-12-21T01:04:57.498Z,6.65
2018-12-21T01:05:57.621Z,6.71
2018-12-21T01:06:57.456Z,6.68
2018-12-21T01:07:57.444Z,6.7
2018-12-21T01:08:57.559Z,6.7
2018-12-21T01:09:57.509Z,6.7
2018-12-21T01:10:57.499Z,6.68
2018-12-21T01:11:57.456Z,6.7
2018-12-21T01:12:57.670Z,6.68
2018-12-21T01:13:57.505Z,6.67
2018-12-21T01:14:57.480Z,6.65
2018-12-21T01:15:57.666Z,6.67
2018-12-21T01:16:58.021Z,6.67
2018-12-21T01:17:57.708Z,6.67
2018-12-21T01:18:57.474Z,6.63
2018-12-21T01:19:57.618Z,6.65
2018-12-21T01:20:57.816Z,6.65
2018-12-21T01:21:57.476Z,6.65
2018-12-21T01:22:57.512Z,6.65
2018-12-21T01:23:57.441Z,6.65
2018-12-21T01:24:57.627Z,6.65
2018-12-21T01:25:57.778Z,6.65
2018-12-21T01:26:57.686Z,6.65
2018-12-21T01:27:57.618Z,6.67
2018-12-21T01:28:57.509Z,6.65
2018-12-21T01:29:57.544Z,6.64
2018-12-21T01:30:57.593Z,6.64
2018-12-21T01:31:57.463Z,6.64
2018-12-21T01:32:57.652Z,6.65
2018-12-21T01:33:57.613Z,6.64
2018-12-21T01:34:57.473Z,6.64
2018-12-21T01:35:57.499Z,6.61
2018-12-21T01:36:57.509Z,6.63
2018-12-21T01:37:57.498Z,6.61
2018-12-21T01:38:57.440Z,6.64
2018-12-21T01:39:57.430Z,6.61
2018-12-21T01:40:57.407Z,6.64
2018-12-21T01:41:57.981Z,6.58
2018-12-21T01:42:57.418Z,6.63
2018-12-21T01:43:57.528Z,6.63
2018-12-21T01:44:57.702Z,6.64
2018-12-21T01:45:58.282Z,6.61
2018-12-21T01:46:57.618Z,6.63
2018-12-21T01:47:57.432Z,6.63
2018-12-21T01:48:58.231Z,6.6
2018-12-21T01:49:57.411Z,6.63
2018-12-21T01:50:57.402Z,6.6
2018-12-21T01:51:57.433Z,6.63
2018-12-21T01:52:57.471Z,6.63
2018-12-21T01:53:57.521Z,6.61
2018-12-21T01:54:57.548Z,6.61
2018-12-21T01:55:57.637Z,6.63
2018-12-21T01:56:57.572Z,6.65
2018-12-21T01:57:57.632Z,6.64
2018-12-21T01:58:57.621Z,6.63
2018-12-21T01:59:57.604Z,6.64
2018-12-21T02:00:57.386Z,6.64
2018-12-21T02:01:57.773Z,6.65
2018-12-21T02:02:57.619Z,6.64
2018-12-21T02:03:57.571Z,6.64
2018-12-21T02:04:58.204Z,6.64
2018-12-21T02:05:57.744Z,6.64
2018-12-21T02:06:57.489Z,6.64
2018-12-21T02:07:57.554Z,6.64
2018-12-21T02:08:57.622Z,6.64
2018-12-21T02:09:57.363Z,6.65
2018-12-21T02:10:57.515Z,6.64
2018-12-21T02:11:57.487Z,6.63
2018-12-21T02:12:57.730Z,6.65
2018-12-21T02:13:57.417Z,6.65
2018-12-21T02:14:57.389Z,6.64
2018-12-21T02:15:57.539Z,6.65
2018-12-21T02:16:57.368Z,6.65
2018-12-21T02:17:57.609Z,6.68
2018-12-21T02:18:57.472Z,6.71
2018-12-21T02:19:57.729Z,6.73
2018-12-21T02:20:57.411Z,6.75
2018-12-21T02:21:57.674Z,6.77
2018-12-21T02:22:57.510Z,6.75
2018-12-21T02:23:57.689Z,6.77
2018-12-21T02:24:57.863Z,6.77
2018-12-21T02:25:58.190Z,6.77
2018-12-21T02:26:57.418Z,6.8
2018-12-21T02:27:57.373Z,6.8
2018-12-21T02:28:57.344Z,6.85
2018-12-21T02:29:57.406Z,6.88
2018-12-21T02:30:57.611Z,6.85
2018-12-21T02:31:57.512Z,6.88
2018-12-21T02:32:57.541Z,6.87
2018-12-21T02:33:57.364Z,6.85
2018-12-21T02:34:57.370Z,6.9
2018-12-21T02:35:57.341Z,6.87
2018-12-21T02:36:57.344Z,6.87
2018-12-21T02:37:57.379Z,6.91
2018-12-21T02:38:57.332Z,6.91
2018-12-21T02:39:57.371Z,6.9
2018-12-21T02:40:57.386Z,6.9
2018-12-21T02:41:57.509Z,6.94
2018-12-21T02:42:57.355Z,6.91
2018-12-21T02:43:57.399Z,6.92
2018-12-21T02:44:57.304Z,6.91
2018-12-21T02:45:57.389Z,6.9
2018-12-21T02:46:57.366Z,6.92
2018-12-21T02:47:57.467Z,6.88
2018-12-21T02:48:57.332Z,6.88
2018-12-21T02:49:57.361Z,6.9
2018-12-21T02:50:57.316Z,6.88
2018-12-21T02:52:05.961Z,6.92
2018-12-21T02:52:57.344Z,6.91
2018-12-21T02:53:57.368Z,6.94
2018-12-21T02:54:57.585Z,6.91
2018-12-21T02:55:57.398Z,6.92
2018-12-21T02:56:57.411Z,6.94
2018-12-21T02:57:57.395Z,6.92
2018-12-21T02:58:57.519Z,6.94
2018-12-21T02:59:57.340Z,6.92
2018-12-21T03:00:57.315Z,6.95
2018-12-21T03:01:57.350Z,6.92
2018-12-21T03:02:57.535Z,6.95
2018-12-21T03:03:57.774Z,6.95
2018-12-21T03:04:57.477Z,6.94
2018-12-21T03:05:57.487Z,6.96
2018-12-21T03:06:57.596Z,6.95
2018-12-21T03:07:57.309Z,6.96
2018-12-21T03:08:57.521Z,6.96
2018-12-21T03:09:57.369Z,6.94
2018-12-21T03:10:57.345Z,6.95
2018-12-21T03:11:57.406Z,6.94
2018-12-21T03:12:57.330Z,6.91
2018-12-21T03:13:57.293Z,6.92
2018-12-21T03:14:57.530Z,6.92
2018-12-21T03:15:57.455Z,6.91
2018-12-21T03:16:57.593Z,6.92
2018-12-21T03:17:57.422Z,6.92
2018-12-21T03:18:57.455Z,6.88
2018-12-21T03:19:57.549Z,6.91
2018-12-21T03:20:57.292Z,6.9
2018-12-21T03:21:57.488Z,6.91
2018-12-21T03:22:57.387Z,6.91
2018-12-21T03:23:57.385Z,6.88
2018-12-21T03:24:57.286Z,6.88
2018-12-21T03:25:57.506Z,6.88
2018-12-21T03:26:57.440Z,6.85
2018-12-21T03:27:57.476Z,6.88
2018-12-21T03:28:57.304Z,6.85
2018-12-21T03:29:57.601Z,6.85
2018-12-21T03:30:57.358Z,6.85
2018-12-21T03:31:57.364Z,6.84
2018-12-21T03:32:57.351Z,6.85
2018-12-21T03:33:57.295Z,6.85
2018-12-21T03:34:57.628Z,6.84
2018-12-21T03:35:57.281Z,6.83
2018-12-21T03:36:57.416Z,6.83
2018-12-21T03:37:57.323Z,6.84
2018-12-21T03:38:57.569Z,6.81
2018-12-21T03:39:57.268Z,6.83
2018-12-21T03:40:58.093Z,6.8
2018-12-21T03:41:58.119Z,6.77
2018-12-21T03:42:57.337Z,6.81
2018-12-21T03:43:57.465Z,6.81
2018-12-21T03:44:57.254Z,6.84
2018-12-21T03:45:57.610Z,6.84
2018-12-21T03:46:57.389Z,6.84
2018-12-21T03:47:57.267Z,6.83
2018-12-21T03:48:57.261Z,6.84
2018-12-21T03:49:57.886Z,6.81
2018-12-21T03:50:57.423Z,6.84
2018-12-21T03:51:57.248Z,6.85
2018-12-21T03:52:57.266Z,6.85
2018-12-21T03:53:57.261Z,6.91
2018-12-21T03:54:57.418Z,6.92
2018-12-21T03:55:57.328Z,6.92
2018-12-21T03:56:57.219Z,6.92
2018-12-21T03:57:57.398Z,6.91
2018-12-21T03:58:57.461Z,6.96
2018-12-21T03:59:57.344Z,6.95
2018-12-21T04:00:57.391Z,6.96
2018-12-21T04:01:57.255Z,6.95
2018-12-21T04:02:57.733Z,6.95
2018-12-21T04:03:58.086Z,6.95
2018-12-21T04:04:57.688Z,6.94
2018-12-21T04:05:57.241Z,6.96
2018-12-21T04:06:57.313Z,6.98
2018-12-21T04:07:57.329Z,6.96
2018-12-21T04:08:57.409Z,6.99
2018-12-21T04:09:57.448Z,6.98
2018-12-21T04:10:57.354Z,6.98
2018-12-21T04:11:57.221Z,6.98
2018-12-21T04:12:57.257Z,6.99
2018-12-21T04:13:57.556Z,6.99
2018-12-21T04:14:57.250Z,7.01
2018-12-21T04:15:57.370Z,7.02
2018-12-21T04:16:57.337Z,7.03
2018-12-21T04:17:57.261Z,7.01
2018-12-21T04:18:57.315Z,7.02
2018-12-21T04:19:57.390Z,7.06
2018-12-21T04:20:57.273Z,7.03
2018-12-21T04:21:57.263Z,7.05
2018-12-21T04:22:57.277Z,7.03
2018-12-21T04:23:57.310Z,7.03
2018-12-21T04:24:57.304Z,7.05
2018-12-21T04:25:57.483Z,7.03
2018-12-21T04:26:57.373Z,7.05
2018-12-21T04:27:57.209Z,7.03
2018-12-21T04:28:57.300Z,7.02
2018-12-21T04:29:57.203Z,6.99
2018-12-21T04:30:57.245Z,7.03
2018-12-21T04:31:57.213Z,7.01
2018-12-21T04:32:57.201Z,7.01
2018-12-21T04:33:57.238Z,7.03
2018-12-21T04:34:57.198Z,7.02
2018-12-21T04:35:57.281Z,7.02
2018-12-21T04:36:57.245Z,7.03
2018-12-21T04:37:57.430Z,7.03
2018-12-21T04:38:57.539Z,7.03
2018-12-21T04:39:57.465Z,7.03
2018-12-21T04:40:57.320Z,7.06
2018-12-21T04:41:57.261Z,7.05
2018-12-21T04:42:57.286Z,7.05
2018-12-21T04:43:57.368Z,7.03
2018-12-21T04:44:57.206Z,7.02
2018-12-21T04:45:57.379Z,7.05
2018-12-21T04:46:57.218Z,7.05
2018-12-21T04:47:57.281Z,7.06
2018-12-21T04:48:57.284Z,7.06
2018-12-21T04:49:57.194Z,7.06
2018-12-21T04:50:57.445Z,7.09
2018-12-21T04:51:58.002Z,7.09
2018-12-21T04:52:57.429Z,7.11
2018-12-21T04:53:57.696Z,7.13
2018-12-21T04:54:57.276Z,7.16
2018-12-21T04:55:57.167Z,7.18
2018-12-21T04:56:57.362Z,7.22
2018-12-21T04:57:57.290Z,7.23
2018-12-21T04:58:57.255Z,7.26
2018-12-21T04:59:57.215Z,7.27
2018-12-21T05:00:57.318Z,7.29
2018-12-21T05:01:57.259Z,7.3
2018-12-21T05:02:57.263Z,7.31
2018-12-21T05:03:57.173Z,7.3
2018-12-21T05:04:57.339Z,7.34
2018-12-21T05:05:57.572Z,7.31
2018-12-21T05:06:58.730Z,7.31
2018-12-21T05:07:57.296Z,7.36
2018-12-21T05:08:57.341Z,7.4
2018-12-21T05:09:57.475Z,7.39
2018-12-21T05:10:57.124Z,7.44
2018-12-21T05:11:57.975Z,7.43
2018-12-21T05:12:57.533Z,7.43
2018-12-21T05:13:57.140Z,7.46
2018-12-21T05:14:57.148Z,7.48
2018-12-21T05:15:57.386Z,7.51
2018-12-21T05:16:57.162Z,7.53
2018-12-21T05:17:57.295Z,7.51
2018-12-21T05:18:57.677Z,7.54
2018-12-21T05:19:57.290Z,7.59
2018-12-21T05:20:57.392Z,7.55
2018-12-21T05:21:57.204Z,7.61
2018-12-21T05:22:57.372Z,7.59
2018-12-21T05:23:57.850Z,7.62
2018-12-21T05:24:57.557Z,7.64
2018-12-21T05:25:57.502Z,7.61
2018-12-21T05:26:57.206Z,7.67
2018-12-21T05:27:57.680Z,7.67
2018-12-21T05:28:57.448Z,7.67
2018-12-21T05:29:57.224Z,7.67
2018-12-21T05:30:57.162Z,7.64
2018-12-21T05:31:57.298Z,7.67
2018-12-21T05:32:57.353Z,7.69
2018-12-21T05:33:57.311Z,7.75
2018-12-21T05:34:57.262Z,7.77
2018-12-21T05:35:57.303Z,7.77
2018-12-21T05:36:57.537Z,7.85
2018-12-21T05:37:57.996Z,7.86
2018-12-21T05:38:57.352Z,7.86
2018-12-21T05:39:57.236Z,7.86
2018-12-21T05:40:57.181Z,7.84
2018-12-21T05:41:57.330Z,7.84
2018-12-21T05:42:57.145Z,7.88
2018-12-21T05:43:57.976Z,7.89
2018-12-21T05:44:57.535Z,7.89
2018-12-21T05:45:57.119Z,7.99
2018-12-21T05:46:57.164Z,7.95
2018-12-21T05:47:57.271Z,7.96
2018-12-21T05:48:57.193Z,7.98
2018-12-21T05:49:57.184Z,7.93
2018-12-21T05:50:57.286Z,7.92
2018-12-21T05:51:57.312Z,7.93
2018-12-21T05:53:01.214Z,7.95
2018-12-21T05:53:57.419Z,7.95
2018-12-21T05:54:57.262Z,7.93
2018-12-21T05:55:57.326Z,7.95
2018-12-21T05:56:57.314Z,7.93
2018-12-21T05:57:57.103Z,7.93
2018-12-21T05:58:57.207Z,7.96
2018-12-21T05:59:57.143Z,7.96
2018-12-21T06:00:57.089Z,7.92
2018-12-21T06:01:57.101Z,7.89
2018-12-21T06:02:57.120Z,7.88
2018-12-21T06:03:57.074Z,7.85
2018-12-21T06:04:57.083Z,7.86
2018-12-21T06:05:57.109Z,7.86
2018-12-21T06:06:57.139Z,7.86
2018-12-21T06:07:57.150Z,7.95
2018-12-21T06:08:57.185Z,7.92
2018-12-21T06:09:57.120Z,7.93
2018-12-21T06:10:57.342Z,7.95
2018-12-21T06:11:57.115Z,7.91
2018-12-21T06:12:57.107Z,7.92
2018-12-21T06:13:57.079Z,7.88
2018-12-21T06:14:57.077Z,7.89
2018-12-21T06:15:57.077Z,7.91
2018-12-21T06:16:57.139Z,7.91
2018-12-21T06:17:57.350Z,7.89
2018-12-21T06:18:57.124Z,7.92
2018-12-21T06:19:57.124Z,7.93
2018-12-21T06:20:57.372Z,7.96
2018-12-21T06:21:57.151Z,7.98
2018-12-21T06:22:57.621Z,7.98
2018-12-21T06:23:57.246Z,7.96
2018-12-21T06:24:57.055Z,7.95
2018-12-21T06:25:57.101Z,7.98
2018-12-21T06:26:57.071Z,7.99
2018-12-21T06:27:57.124Z,7.99
2018-12-21T06:28:57.044Z,8.01
2018-12-21T06:29:57.312Z,8.01
2018-12-21T06:30:57.541Z,7.98
2018-12-21T06:31:57.041Z,7.96
2018-12-21T06:32:57.099Z,7.96
2018-12-21T06:33:57.378Z,8.01
2018-12-21T06:34:57.120Z,7.99
2018-12-21T06:35:57.185Z,7.98
2018-12-21T06:36:57.088Z,7.96
2018-12-21T06:37:57.268Z,7.93
2018-12-21T06:38:57.064Z,7.96
2018-12-21T06:39:57.414Z,7.93
2018-12-21T06:40:57.336Z,7.91
2018-12-21T06:41:57.193Z,7.95
2018-12-21T06:42:57.322Z,7.92
2018-12-21T06:43:57.206Z,7.93
2018-12-21T06:44:57.090Z,7.91
2018-12-21T06:45:57.020Z,7.91
2018-12-21T06:46:57.204Z,7.92
2018-12-21T06:47:57.469Z,7.91
2018-12-21T06:48:57.089Z,7.89
2018-12-21T06:49:57.283Z,7.91
2018-12-21T06:50:57.142Z,7.91
2018-12-21T06:51:57.050Z,7.88
2018-12-21T06:52:57.136Z,7.91
2018-12-21T06:53:57.104Z,7.88
2018-12-21T06:54:57.138Z,7.88
2018-12-21T06:55:57.564Z,7.86
2018-12-21T06:56:57.280Z,7.88
2018-12-21T06:57:57.255Z,7.86
2018-12-21T06:58:57.037Z,7.88
2018-12-21T06:59:57.082Z,7.85
2018-12-21T07:00:57.198Z,7.86
2018-12-21T07:01:57.051Z,7.86
2018-12-21T07:02:57.057Z,7.86
2018-12-21T07:03:57.034Z,7.88
2018-12-21T07:04:57.342Z,7.89
2018-12-21T07:05:57.228Z,7.86
2018-12-21T07:06:57.503Z,7.85
2018-12-21T07:07:57.089Z,7.88
2018-12-21T07:08:57.022Z,7.86
2018-12-21T07:09:57.022Z,7.86
2018-12-21T07:10:57.217Z,7.88
2018-12-21T07:11:57.380Z,7.84
2018-12-21T07:12:57.787Z,7.85
2018-12-21T07:13:57.014Z,7.84
2018-12-21T07:14:56.989Z,7.85
2018-12-21T07:15:56.997Z,7.86
2018-12-21T07:16:57.206Z,7.85
2018-12-21T07:17:57.060Z,7.84
2018-12-21T07:18:57.067Z,7.86
2018-12-21T07:19:57.262Z,7.84
2018-12-21T07:20:57.268Z,7.84
2018-12-21T07:21:57.006Z,7.84
2018-12-21T07:22:57.148Z,7.85
2018-12-21T07:23:57.222Z,7.84
2018-12-21T07:24:57.249Z,7.81
2018-12-21T07:25:57.062Z,7.84
2018-12-21T07:26:57.811Z,7.85
2018-12-21T07:27:56.980Z,7.84
2018-12-21T07:28:57.378Z,7.82
2018-12-21T07:29:57.816Z,7.85
2018-12-21T07:30:57.089Z,7.84
2018-12-21T07:31:57.155Z,7.82
2018-12-21T07:32:57.127Z,7.81
2018-12-21T07:33:56.976Z,7.81
2018-12-21T07:34:57.400Z,7.84
2018-12-21T07:35:57.292Z,7.84
2018-12-21T07:36:57.178Z,7.84
2018-12-21T07:37:57.100Z,7.84
2018-12-21T07:38:57.089Z,7.86
2018-12-21T07:39:57.084Z,7.85
2018-12-21T07:40:57.000Z,7.88
2018-12-21T07:41:57.197Z,7.84
2018-12-21T07:42:57.133Z,7.85
2018-12-21T07:43:57.072Z,7.84
2018-12-21T07:44:57.159Z,7.85
2018-12-21T07:45:57.057Z,7.85
2018-12-21T07:46:57.126Z,7.88
2018-12-21T07:47:57.004Z,7.88
2018-12-21T07:48:57.036Z,7.91
2018-12-21T07:49:57.176Z,7.93
2018-12-21T07:50:56.979Z,7.98
2018-12-21T07:51:57.046Z,7.98
2018-12-21T07:52:57.016Z,7.98
2018-12-21T07:53:57.115Z,7.96
2018-12-21T07:54:57.259Z,7.93
2018-12-21T07:55:57.005Z,7.95
2018-12-21T07:56:57.079Z,7.99
2018-12-21T07:57:58.798Z,7.98
2018-12-21T07:58:57.786Z,8.01
2018-12-21T07:59:57.186Z,8.03
2018-12-21T08:00:57.190Z,8.02
2018-12-21T08:01:57.102Z,8.02
2018-12-21T08:02:56.942Z,7.98
2018-12-21T08:03:57.186Z,7.99
2018-12-21T08:04:57.588Z,8.02
2018-12-21T08:05:57.116Z,8.01
2018-12-21T08:06:57.178Z,8.02
2018-12-21T08:07:57.261Z,8.01
2018-12-21T08:08:57.093Z,8.01
2018-12-21T08:09:57.380Z,7.99
2018-12-21T08:10:57.238Z,8.02
2018-12-21T08:11:57.056Z,8.01
2018-12-21T08:12:57.062Z,8.02
2018-12-21T08:13:57.184Z,8.01
2018-12-21T08:14:57.114Z,8.01
2018-12-21T08:15:57.014Z,7.98
2018-12-21T08:16:57.018Z,7.99
2018-12-21T08:17:57.460Z,7.98
2018-12-21T08:18:57.240Z,8.03
2018-12-21T08:19:57.091Z,8.06
2018-12-21T08:20:56.949Z,8.05
2018-12-21T08:21:56.975Z,8.06
2018-12-21T08:22:56.932Z,8.08
2018-12-21T08:23:57.071Z,8.06
2018-12-21T08:24:57.197Z,8.06
2018-12-21T08:25:57.375Z,8.05
2018-12-21T08:26:57.008Z,8.03
2018-12-21T08:27:57.635Z,8.08
2018-12-21T08:28:56.988Z,8.06
2018-12-21T08:29:57.060Z,8.08
2018-12-21T08:30:57.306Z,8.08
2018-12-21T08:31:57.741Z,8.03
2018-12-21T08:32:57.164Z,8.05
2018-12-21T08:33:57.027Z,8.08
2018-12-21T08:34:57.032Z,8.06
2018-12-21T08:35:57.145Z,8.09
2018-12-21T08:36:57.207Z,8.08
2018-12-21T08:37:56.931Z,8.12
2018-12-21T08:38:56.882Z,8.1
2018-12-21T08:39:57.127Z,8.12
2018-12-21T08:40:57.056Z,8.13
2018-12-21T08:41:57.153Z,8.16
2018-12-21T08:42:57.179Z,8.17
2018-12-21T08:43:57.191Z,8.13
2018-12-21T08:44:57.844Z,8.13
2018-12-21T08:45:57.198Z,8.17
2018-12-21T08:46:57.720Z,8.16
2018-12-21T08:47:57.081Z,8.2
2018-12-21T08:48:57.120Z,8.2
2018-12-21T08:49:57.383Z,8.2
2018-12-21T08:50:57.120Z,8.17
2018-12-21T08:51:56.898Z,8.19
2018-12-21T08:52:57.033Z,8.21
2018-12-21T08:53:57.115Z,8.2
2018-12-21T08:54:57.041Z,8.2
2018-12-21T08:55:57.256Z,8.2
2018-12-21T08:56:56.876Z,8.24
2018-12-21T08:57:57.709Z,8.27
2018-12-21T08:58:57.105Z,8.24
2018-12-21T08:59:57.179Z,8.24
2018-12-21T09:00:57.054Z,8.26
2018-12-21T09:01:57.450Z,8.24
2018-12-21T09:02:57.052Z,8.27
2018-12-21T09:03:57.158Z,8.27
2018-12-21T09:04:56.924Z,8.27
2018-12-21T09:05:57.120Z,8.3
2018-12-21T09:06:57.126Z,8.29
2018-12-21T09:07:57.290Z,8.31
2018-12-21T09:08:57.043Z,8.31
2018-12-21T09:09:56.896Z,8.3
2018-12-21T09:10:56.982Z,8.33
2018-12-21T09:11:57.040Z,8.36
2018-12-21T09:12:56.892Z,8.38
2018-12-21T09:13:57.129Z,8.4
2018-12-21T09:14:56.857Z,8.41
2018-12-21T09:15:57.320Z,8.41
2018-12-21T09:16:57.085Z,8.44
2018-12-21T09:17:56.860Z,8.44
2018-12-21T09:18:56.904Z,8.43
2018-12-21T09:19:56.983Z,8.51
2018-12-21T09:20:56.988Z,8.54
2018-12-21T09:21:56.994Z,8.55
2018-12-21T09:22:56.834Z,8.51
2018-12-21T09:24:01.556Z,8.54
2018-12-21T09:24:57.216Z,8.52
2018-12-21T09:25:56.954Z,8.52
2018-12-21T09:26:56.855Z,8.52
2018-12-21T09:27:57.186Z,8.51
2018-12-21T09:28:56.821Z,8.49
2018-12-21T09:29:57.032Z,8.52
2018-12-21T09:30:57.050Z,8.52
2018-12-21T09:32:05.582Z,8.51
2018-12-21T09:32:56.824Z,8.57
2018-12-21T09:33:56.842Z,8.57
2018-12-21T09:34:57.225Z,8.54
2018-12-21T09:35:57.028Z,8.54
2018-12-21T09:36:56.896Z,8.52
2018-12-21T09:37:57.031Z,8.54
2018-12-21T09:38:56.812Z,8.54
2018-12-21T09:39:56.912Z,8.55
2018-12-21T09:40:56.981Z,8.52
2018-12-21T09:41:56.945Z,8.55
2018-12-21T09:42:56.855Z,8.58
2018-12-21T09:43:56.803Z,8.59
2018-12-21T09:44:57.123Z,8.59
2018-12-21T09:45:57.102Z,8.62
2018-12-21T09:46:57.084Z,8.62
2018-12-21T09:47:57.031Z,8.61
2018-12-21T09:48:57.192Z,8.62
2018-12-21T09:49:56.997Z,8.62
2018-12-21T09:50:57.127Z,8.64
2018-12-21T09:51:57.052Z,8.61
2018-12-21T09:52:57.624Z,8.59
2018-12-21T09:53:57.002Z,8.61
2018-12-21T09:54:57.010Z,8.65
2018-12-21T09:55:56.813Z,8.68
2018-12-21T09:56:56.788Z,8.68
2018-12-21T09:57:57.025Z,8.66
2018-12-21T09:58:56.971Z,8.66
2018-12-21T09:59:56.876Z,8.68
2018-12-21T10:00:57.691Z,8.65
2018-12-21T10:01:56.823Z,8.74
2018-12-21T10:02:56.849Z,8.71
2018-12-21T10:03:56.972Z,8.74
2018-12-21T10:04:56.860Z,8.71
2018-12-21T10:05:57.057Z,8.72
2018-12-21T10:06:57.197Z,8.71
2018-12-21T10:07:56.782Z,8.71
2018-12-21T10:08:56.981Z,8.72
2018-12-21T10:09:57.626Z,8.75
2018-12-21T10:10:56.956Z,8.74
2018-12-21T10:11:57.172Z,8.74
2018-12-21T10:12:56.953Z,8.75
2018-12-21T10:13:56.993Z,8.76
2018-12-21T10:14:57.084Z,8.78
2018-12-21T10:15:57.130Z,8.79
2018-12-21T10:16:56.846Z,8.8
2018-12-21T10:17:57.586Z,8.82
2018-12-21T10:18:57.026Z,8.82
2018-12-21T10:19:57.625Z,8.82
2018-12-21T10:20:56.820Z,8.86
2018-12-21T10:21:56.808Z,8.86
2018-12-21T10:22:56.830Z,8.86
2018-12-21T10:23:57.048Z,8.88
2018-12-21T10:24:56.850Z,8.91
2018-12-21T10:25:56.988Z,8.91
2018-12-21T10:26:57.094Z,8.91
2018-12-21T10:27:56.922Z,8.92
2018-12-21T10:28:56.770Z,8.96
2018-12-21T10:29:56.805Z,8.92
2018-12-21T10:30:57.591Z,8.95
2018-12-21T10:31:56.822Z,9
2018-12-21T10:32:57.571Z,9.02
2018-12-21T10:33:56.932Z,8.99
2018-12-21T10:34:57.069Z,9
2018-12-21T10:35:56.771Z,9
2018-12-21T10:36:57.606Z,9.07
2018-12-21T10:37:57.613Z,9.03
2018-12-21T10:38:57.036Z,9.06
2018-12-21T10:39:57.130Z,9.09
2018-12-21T10:40:57.110Z,9.14
2018-12-21T10:41:57.151Z,9.14
2018-12-21T10:42:56.755Z,9.19
2018-12-21T10:43:57.559Z,9.19
2018-12-21T10:44:56.523Z,9.2
2018-12-21T10:45:56.781Z,9.24
2018-12-21T10:46:57.541Z,9.19
2018-12-21T10:47:57.002Z,9.2
2018-12-21T10:48:56.965Z,9.21
2018-12-21T10:49:56.743Z,9.2
2018-12-21T10:50:56.733Z,9.2
2018-12-21T10:51:57.562Z,9.2
2018-12-21T10:52:56.846Z,9.23
2018-12-21T10:53:56.981Z,9.24
2018-12-21T10:54:57.085Z,9.23
2018-12-21T10:55:57.059Z,9.29
2018-12-21T10:56:57.119Z,9.3
2018-12-21T10:57:56.868Z,9.33
2018-12-21T10:58:56.769Z,9.3
2018-12-21T10:59:57.017Z,9.34
2018-12-21T11:00:56.717Z,9.33
2018-12-21T11:01:56.678Z,9.34
2018-12-21T11:02:56.716Z,9.34
2018-12-21T11:03:56.735Z,9.37
2018-12-21T11:04:56.717Z,9.34
2018-12-21T11:05:56.710Z,9.35
2018-12-21T11:06:56.736Z,9.33
2018-12-21T11:07:56.719Z,9.34
2018-12-21T11:08:56.740Z,9.38
2018-12-21T11:09:56.780Z,9.4
2018-12-21T11:10:56.954Z,9.4
2018-12-21T11:11:56.707Z,9.4
2018-12-21T11:12:56.664Z,9.4
2018-12-21T11:13:56.725Z,9.4
2018-12-21T11:14:56.670Z,9.4
2018-12-21T11:15:56.762Z,9.41
2018-12-21T11:16:56.746Z,9.38
2018-12-21T11:17:56.809Z,9.4
2018-12-21T11:18:57.180Z,9.38
2018-12-21T11:19:56.959Z,9.38
2018-12-21T11:20:57.010Z,9.38
2018-12-21T11:21:56.927Z,9.37
2018-12-21T11:22:57.038Z,9.41
2018-12-21T11:23:57.032Z,9.37
2018-12-21T11:24:57.348Z,9.4
2018-12-21T11:25:56.654Z,9.41
2018-12-21T11:26:56.672Z,9.41
2018-12-21T11:27:56.778Z,9.41
2018-12-21T11:28:56.682Z,9.44
2018-12-21T11:29:56.920Z,9.48
2018-12-21T11:30:56.923Z,9.44
2018-12-21T11:31:56.656Z,9.44
2018-12-21T11:32:57.364Z,9.45
2018-12-21T11:33:56.659Z,9.42
2018-12-21T11:34:56.889Z,9.42
2018-12-21T11:35:56.897Z,9.42
2018-12-21T11:36:56.683Z,9.4
2018-12-21T11:37:57.113Z,9.41
2018-12-21T11:38:56.733Z,9.4
2018-12-21T11:39:56.709Z,9.4
2018-12-21T11:40:57.009Z,9.41
2018-12-21T11:41:56.999Z,9.38
2018-12-21T11:42:56.957Z,9.42
2018-12-21T11:43:56.768Z,9.4
2018-12-21T11:44:56.761Z,9.38
2018-12-21T11:45:56.940Z,9.41
2018-12-21T11:46:57.493Z,9.44
2018-12-21T11:47:56.885Z,9.41
2018-12-21T11:48:56.779Z,9.41
2018-12-21T11:49:56.634Z,9.4
2018-12-21T11:50:56.734Z,9.44
2018-12-21T11:51:56.947Z,9.41
2018-12-21T11:52:56.722Z,9.44
2018-12-21T11:53:56.671Z,9.44
2018-12-21T11:54:56.678Z,9.44
2018-12-21T11:55:57.478Z,9.41
2018-12-21T11:56:56.676Z,9.4
2018-12-21T11:57:56.857Z,9.42
2018-12-21T11:58:56.828Z,9.4
2018-12-21T11:59:56.681Z,9.41
2018-12-21T12:00:57.458Z,9.4
2018-12-21T12:01:57.473Z,9.4
2018-12-21T12:02:56.776Z,9.38
2018-12-21T12:03:57.501Z,9.4
2018-12-21T12:04:56.637Z,9.38
2018-12-21T12:05:56.817Z,9.4
2018-12-21T12:06:57.005Z,9.41
2018-12-21T12:07:57.012Z,9.4
2018-12-21T12:08:56.647Z,9.41
2018-12-21T12:09:56.654Z,9.4
2018-12-21T12:10:56.673Z,9.41
2018-12-21T12:11:56.739Z,9.42
2018-12-21T12:12:56.662Z,9.47
2018-12-21T12:13:56.768Z,9.44
2018-12-21T12:14:57.487Z,9.47
2018-12-21T12:15:56.747Z,9.48
2018-12-21T12:16:58.951Z,9.47
2018-12-21T12:17:56.799Z,9.47
2018-12-21T12:18:56.744Z,9.47
2018-12-21T12:19:56.694Z,9.45
2018-12-21T12:20:57.034Z,9.47
2018-12-21T12:21:56.755Z,9.45
2018-12-21T12:22:56.721Z,9.45
2018-12-21T12:23:56.780Z,9.45
2018-12-21T12:24:56.724Z,9.45
2018-12-21T12:25:56.747Z,9.44
2018-12-21T12:26:57.000Z,9.44
2018-12-21T12:27:56.804Z,9.45
2018-12-21T12:28:56.661Z,9.45
2018-12-21T12:29:56.712Z,9.48
2018-12-21T12:30:57.139Z,9.49
2018-12-21T12:31:56.814Z,9.47
2018-12-21T12:32:56.715Z,9.49
2018-12-21T12:33:57.121Z,9.48
2018-12-21T12:34:56.829Z,9.49
2018-12-21T12:35:56.722Z,9.51
2018-12-21T12:36:58.198Z,9.52
2018-12-21T12:37:56.650Z,9.51
2018-12-21T12:38:56.606Z,9.52
2018-12-21T12:39:56.690Z,9.54
2018-12-21T12:40:56.625Z,9.54
2018-12-21T12:41:56.592Z,9.58
2018-12-21T12:42:56.595Z,9.55
2018-12-21T12:43:57.041Z,9.57
2018-12-21T12:44:56.595Z,9.55
2018-12-21T12:45:56.576Z,9.57
2018-12-21T12:46:56.612Z,9.59
2018-12-21T12:47:56.835Z,9.55
2018-12-21T12:48:56.579Z,9.59
2018-12-21T12:49:56.595Z,9.54
2018-12-21T12:50:56.650Z,9.57
2018-12-21T12:51:56.745Z,9.58
2018-12-21T12:52:56.593Z,9.58
2018-12-21T12:53:56.728Z,9.61
2018-12-21T12:55:03.422Z,9.62
2018-12-21T12:55:56.962Z,9.65
2018-12-21T12:56:56.681Z,9.63
2018-12-21T12:57:56.659Z,9.65
2018-12-21T12:58:56.654Z,9.66
2018-12-21T12:59:56.760Z,9.68
2018-12-21T13:00:56.779Z,9.66
2018-12-21T13:01:58.669Z,9.69
2018-12-21T13:02:57.018Z,9.66
2018-12-21T13:03:56.992Z,9.7
2018-12-21T13:04:56.697Z,9.68
2018-12-21T13:05:56.871Z,9.72
2018-12-21T13:06:56.737Z,9.75
2018-12-21T13:07:57.396Z,9.78
2018-12-21T13:08:56.584Z,9.79
2018-12-21T13:09:56.722Z,9.79
2018-12-21T13:10:56.631Z,9.79
2018-12-21T13:11:56.908Z,9.79
2018-12-21T13:12:56.949Z,9.76
2018-12-21T13:13:57.076Z,9.82
2018-12-21T13:14:56.902Z,9.79
2018-12-21T13:15:56.980Z,9.81
2018-12-21T13:16:56.732Z,9.82
2018-12-21T13:17:56.786Z,9.83
2018-12-21T13:18:56.874Z,9.81
2018-12-21T13:19:57.069Z,9.86
2018-12-21T13:20:56.568Z,9.85